createdAt,value
2019-05-23T00:00:39.229Z,961.41
2019-05-23T00:01:39.198Z,961.42
2019-05-23T00:02:39.212Z,961.36
2019-05-23T00:03:39.209Z,961.36
2019-05-23T00:04:39.162Z,961.40
2019-05-23T00:05:39.169Z,961.39
2019-05-23T00:06:39.189Z,961.38
2019-05-23T00:07:39.158Z,961.40
2019-05-23T00:08:39.116Z,961.40
2019-05-23T00:09:39.221Z,961.32
2019-05-23T00:10:39.111Z,961.34
2019-05-23T00:11:40.272Z,961.39
2019-05-23T00:12:39.208Z,961.41
2019-05-23T00:13:39.111Z,961.39
2019-05-23T00:14:39.056Z,961.44
2019-05-23T00:15:39.038Z,961.38
2019-05-23T00:16:39.045Z,961.44
2019-05-23T00:17:39.047Z,961.44
2019-05-23T00:18:39.029Z,961.46
2019-05-23T00:19:39.039Z,961.46
2019-05-23T00:20:39.077Z,961.42
2019-05-23T00:21:38.969Z,961.38
2019-05-23T00:22:38.983Z,961.42
2019-05-23T00:23:38.987Z,961.40
2019-05-23T00:24:38.952Z,961.40
2019-05-23T00:25:38.939Z,961.42
2019-05-23T00:26:38.918Z,961.41
2019-05-23T00:27:38.917Z,961.43
2019-05-23T00:28:39.278Z,961.43
2019-05-23T00:29:40.532Z,961.47
2019-05-23T00:30:38.869Z,961.49
2019-05-23T00:31:38.869Z,961.39
2019-05-23T00:32:38.875Z,961.45
2019-05-23T00:33:38.858Z,961.38
2019-05-23T00:34:38.882Z,961.32
2019-05-23T00:35:38.908Z,961.37
2019-05-23T00:36:38.818Z,961.34
2019-05-23T00:37:38.800Z,961.37
2019-05-23T00:38:38.878Z,961.35
2019-05-23T00:39:38.781Z,961.33
2019-05-23T00:40:38.787Z,961.33
2019-05-23T00:41:38.817Z,961.29
2019-05-23T00:42:38.818Z,961.32
2019-05-23T00:43:38.768Z,961.32
2019-05-23T00:44:38.722Z,961.34
2019-05-23T00:45:38.787Z,961.31
2019-05-23T00:46:38.748Z,961.31
2019-05-23T00:47:38.698Z,961.29
2019-05-23T00:48:38.698Z,961.34
2019-05-23T00:49:38.741Z,961.29
2019-05-23T00:50:38.689Z,961.32
2019-05-23T00:51:38.649Z,961.31
2019-05-23T00:52:38.627Z,961.30
2019-05-23T00:53:38.692Z,961.34
2019-05-23T00:54:38.617Z,961.33
2019-05-23T00:55:38.619Z,961.34
2019-05-23T00:56:38.724Z,961.32
2019-05-23T00:57:38.606Z,961.31
2019-05-23T00:58:39.426Z,961.34
2019-05-23T00:59:38.607Z,961.39
2019-05-23T01:00:38.590Z,961.33
2019-05-23T01:01:38.588Z,961.28
2019-05-23T01:02:38.518Z,961.30
2019-05-23T01:03:38.528Z,961.30
2019-05-23T01:04:38.529Z,961.36
2019-05-23T01:05:38.517Z,961.32
2019-05-23T01:06:38.480Z,961.36
2019-05-23T01:07:38.468Z,961.32
2019-05-23T01:08:38.469Z,961.28
2019-05-23T01:09:38.462Z,961.31
2019-05-23T01:10:38.570Z,961.31
2019-05-23T01:11:38.460Z,961.33
2019-05-23T01:12:38.458Z,961.32
2019-05-23T01:13:38.419Z,961.34
2019-05-23T01:14:38.397Z,961.34
2019-05-23T01:15:38.398Z,961.32
2019-05-23T01:16:38.370Z,961.31
2019-05-23T01:17:38.348Z,961.33
2019-05-23T01:18:38.352Z,961.28
2019-05-23T01:19:38.337Z,961.30
2019-05-23T01:20:38.351Z,961.34
2019-05-23T01:21:38.308Z,961.32
2019-05-23T01:22:38.328Z,961.33
2019-05-23T01:23:38.286Z,961.29
2019-05-23T01:24:38.306Z,961.32
2019-05-23T01:25:38.376Z,961.28
2019-05-23T01:26:38.271Z,961.31
2019-05-23T01:27:38.262Z,961.31
2019-05-23T01:28:38.232Z,961.34
2019-05-23T01:29:38.701Z,961.37
2019-05-23T01:30:38.241Z,961.33
2019-05-23T01:31:38.205Z,961.38
2019-05-23T01:32:38.219Z,961.35
2019-05-23T01:33:38.194Z,961.36
2019-05-23T01:34:38.175Z,961.31
2019-05-23T01:35:38.187Z,961.35
2019-05-23T01:36:38.169Z,961.29
2019-05-23T01:37:38.145Z,961.32
2019-05-23T01:38:38.136Z,961.28
2019-05-23T01:39:38.119Z,961.26
2019-05-23T01:40:38.137Z,961.26
2019-05-23T01:41:38.123Z,961.28
2019-05-23T01:42:38.094Z,961.18
2019-05-23T01:43:38.092Z,961.24
2019-05-23T01:44:38.072Z,961.29
2019-05-23T01:45:38.135Z,961.30
2019-05-23T01:46:38.061Z,961.26
2019-05-23T01:47:38.095Z,961.23
2019-05-23T01:48:38.093Z,961.27
2019-05-23T01:49:38.029Z,961.22
2019-05-23T01:50:38.047Z,961.35
2019-05-23T01:51:38.051Z,961.29
2019-05-23T01:52:37.968Z,961.31
2019-05-23T01:53:37.966Z,961.29
2019-05-23T01:54:37.968Z,961.32
2019-05-23T01:55:38.048Z,961.22
2019-05-23T01:56:37.937Z,961.21
2019-05-23T01:57:37.987Z,961.23
2019-05-23T01:58:37.968Z,961.25
2019-05-23T01:59:37.910Z,961.26
2019-05-23T02:00:37.896Z,961.28
2019-05-23T02:01:37.954Z,961.29
2019-05-23T02:02:37.886Z,961.24
2019-05-23T02:03:37.849Z,961.32
2019-05-23T02:04:37.854Z,961.30
2019-05-23T02:05:37.860Z,961.34
2019-05-23T02:06:37.827Z,961.32
2019-05-23T02:07:37.816Z,961.30
2019-05-23T02:08:37.806Z,961.33
2019-05-23T02:09:37.792Z,961.30
2019-05-23T02:10:37.786Z,961.33
2019-05-23T02:11:37.826Z,961.36
2019-05-23T02:12:37.750Z,961.28
2019-05-23T02:13:37.781Z,961.30
2019-05-23T02:14:37.742Z,961.35
2019-05-23T02:15:37.720Z,961.34
2019-05-23T02:16:37.727Z,961.28
2019-05-23T02:17:37.737Z,961.28
2019-05-23T02:18:37.685Z,961.33
2019-05-23T02:19:37.673Z,961.27
2019-05-23T02:20:37.660Z,961.29
2019-05-23T02:21:37.709Z,961.25
2019-05-23T02:22:37.695Z,961.26
2019-05-23T02:23:37.625Z,961.27
2019-05-23T02:24:37.627Z,961.24
2019-05-23T02:25:37.620Z,961.28
2019-05-23T02:26:37.607Z,961.24
2019-05-23T02:27:37.595Z,961.27
2019-05-23T02:28:37.571Z,961.30
2019-05-23T02:29:37.563Z,961.23
2019-05-23T02:30:37.617Z,961.27
2019-05-23T02:31:37.583Z,961.32
2019-05-23T02:32:37.546Z,961.23
2019-05-23T02:33:37.524Z,961.26
2019-05-23T02:34:37.512Z,961.27
2019-05-23T02:35:37.498Z,961.23
2019-05-23T02:36:37.484Z,961.25
2019-05-23T02:37:37.515Z,961.24
2019-05-23T02:38:37.465Z,961.25
2019-05-23T02:39:37.456Z,961.25
2019-05-23T02:40:37.440Z,961.23
2019-05-23T02:41:37.432Z,961.23
2019-05-23T02:42:37.443Z,961.27
2019-05-23T02:43:37.424Z,961.30
2019-05-23T02:44:37.408Z,961.32
2019-05-23T02:45:37.379Z,961.28
2019-05-23T02:46:37.423Z,961.28
2019-05-23T02:47:37.394Z,961.27
2019-05-23T02:48:37.497Z,961.29
2019-05-23T02:49:37.345Z,961.34
2019-05-23T02:50:37.347Z,961.26
2019-05-23T02:51:37.332Z,961.27
2019-05-23T02:52:37.306Z,961.28
2019-05-23T02:53:37.309Z,961.24
2019-05-23T02:54:37.572Z,961.27
2019-05-23T02:55:37.312Z,961.28
2019-05-23T02:56:37.299Z,961.30
2019-05-23T02:57:37.260Z,961.27
2019-05-23T02:58:37.243Z,961.23
2019-05-23T02:59:37.275Z,961.26
2019-05-23T03:00:52.429Z,961.28
2019-05-23T03:01:38.255Z,961.25
2019-05-23T03:02:37.196Z,961.23
2019-05-23T03:03:44.649Z,961.28
2019-05-23T03:04:40.590Z,961.20
2019-05-23T03:05:40.481Z,961.25
2019-05-23T03:06:38.113Z,961.24
2019-05-23T03:07:38.209Z,961.24
2019-05-23T03:08:38.163Z,961.19
2019-05-23T03:09:37.146Z,961.23
2019-05-23T03:10:37.110Z,961.21
2019-05-23T03:11:37.097Z,961.18
2019-05-23T03:12:37.097Z,961.18
2019-05-23T03:13:37.078Z,961.19
2019-05-23T03:14:37.080Z,961.20
2019-05-23T03:15:37.080Z,961.16
2019-05-23T03:16:37.038Z,961.13
2019-05-23T03:17:37.026Z,961.16
2019-05-23T03:18:37.046Z,961.12
2019-05-23T03:19:37.103Z,961.18
2019-05-23T03:20:37.008Z,961.23
2019-05-23T03:21:36.997Z,961.23
2019-05-23T03:22:36.976Z,961.25
2019-05-23T03:23:37.095Z,961.20
2019-05-23T03:24:36.995Z,961.25
2019-05-23T03:25:37.025Z,961.24
2019-05-23T03:26:36.956Z,961.24
2019-05-23T03:27:36.917Z,961.13
2019-05-23T03:28:36.966Z,961.18
2019-05-23T03:29:36.896Z,961.22
2019-05-23T03:30:37.317Z,961.17
2019-05-23T03:31:36.907Z,961.22
2019-05-23T03:32:39.452Z,961.22
2019-05-23T03:33:36.900Z,961.22
2019-05-23T03:34:36.886Z,961.15
2019-05-23T03:35:36.931Z,961.12
2019-05-23T03:36:36.891Z,961.13
2019-05-23T03:37:36.846Z,961.20
2019-05-23T03:38:36.845Z,961.17
2019-05-23T03:39:36.908Z,961.12
2019-05-23T03:40:36.817Z,961.12
2019-05-23T03:41:36.784Z,961.23
2019-05-23T03:42:36.796Z,961.18
2019-05-23T03:43:36.749Z,961.15
2019-05-23T03:44:36.727Z,961.20
2019-05-23T03:45:39.679Z,961.23
2019-05-23T03:46:36.788Z,961.27
2019-05-23T03:47:36.713Z,961.26
2019-05-23T03:48:36.694Z,961.26
2019-05-23T03:49:36.720Z,961.29
2019-05-23T03:50:36.782Z,961.30
2019-05-23T03:51:36.710Z,961.25
2019-05-23T03:52:36.664Z,961.22
2019-05-23T03:53:36.694Z,961.19
2019-05-23T03:54:36.628Z,961.22
2019-05-23T03:55:36.648Z,961.17
2019-05-23T03:56:36.619Z,961.21
2019-05-23T03:57:36.589Z,961.22
2019-05-23T03:58:36.614Z,961.19
2019-05-23T03:59:36.586Z,961.25
2019-05-23T04:00:36.587Z,961.19
2019-05-23T04:01:47.888Z,961.17
2019-05-23T04:02:37.595Z,961.23
2019-05-23T04:03:39.928Z,961.23
2019-05-23T04:04:36.523Z,961.26
2019-05-23T04:05:36.509Z,961.22
2019-05-23T04:06:36.520Z,961.25
2019-05-23T04:07:36.494Z,961.25
2019-05-23T04:08:36.475Z,961.26
2019-05-23T04:09:36.507Z,961.21
2019-05-23T04:10:36.473Z,961.26
2019-05-23T04:11:36.507Z,961.25
2019-05-23T04:12:36.455Z,961.29
2019-05-23T04:13:36.556Z,961.31
2019-05-23T04:14:36.395Z,961.27
2019-05-23T04:15:36.477Z,961.28
2019-05-23T04:16:36.386Z,961.28
2019-05-23T04:17:36.405Z,961.29
2019-05-23T04:18:36.375Z,961.26
2019-05-23T04:19:36.356Z,961.29
2019-05-23T04:20:36.339Z,961.31
2019-05-23T04:21:36.334Z,961.32
2019-05-23T04:22:36.312Z,961.35
2019-05-23T04:23:36.324Z,961.33
2019-05-23T04:24:36.295Z,961.33
2019-05-23T04:25:36.289Z,961.33
2019-05-23T04:26:36.269Z,961.34
2019-05-23T04:27:36.253Z,961.37
2019-05-23T04:28:36.282Z,961.34
2019-05-23T04:29:36.236Z,961.38
2019-05-23T04:30:36.223Z,961.40
2019-05-23T04:31:36.228Z,961.37
2019-05-23T04:32:36.204Z,961.36
2019-05-23T04:33:36.213Z,961.40
2019-05-23T04:34:36.186Z,961.40
2019-05-23T04:35:36.176Z,961.33
2019-05-23T04:36:36.205Z,961.38
2019-05-23T04:37:36.194Z,961.38
2019-05-23T04:38:36.754Z,961.40
2019-05-23T04:39:36.133Z,961.38
2019-05-23T04:40:36.114Z,961.43
2019-05-23T04:41:36.112Z,961.38
2019-05-23T04:42:36.093Z,961.39
2019-05-23T04:43:36.126Z,961.43
2019-05-23T04:44:36.085Z,961.45
2019-05-23T04:45:36.066Z,961.40
2019-05-23T04:46:36.070Z,961.42
2019-05-23T04:47:36.058Z,961.44
2019-05-23T04:48:36.045Z,961.45
2019-05-23T04:49:36.022Z,961.42
2019-05-23T04:50:36.015Z,961.43
2019-05-23T04:51:36.000Z,961.44
2019-05-23T04:52:35.987Z,961.41
2019-05-23T04:53:35.991Z,961.43
2019-05-23T04:54:35.962Z,961.42
2019-05-23T04:55:35.961Z,961.47
2019-05-23T04:56:35.943Z,961.46
2019-05-23T04:57:35.944Z,961.47
2019-05-23T04:58:35.933Z,961.47
2019-05-23T04:59:35.908Z,961.50
2019-05-23T05:00:35.893Z,961.48
2019-05-23T05:01:35.900Z,961.50
2019-05-23T05:02:35.873Z,961.48
2019-05-23T05:03:35.912Z,961.49
2019-05-23T05:04:35.874Z,961.46
2019-05-23T05:05:35.887Z,961.52
2019-05-23T05:06:35.823Z,961.52
2019-05-23T05:07:35.829Z,961.50
2019-05-23T05:08:35.954Z,961.50
2019-05-23T05:09:35.811Z,961.47
2019-05-23T05:10:35.786Z,961.51
2019-05-23T05:11:35.772Z,961.51
2019-05-23T05:12:35.762Z,961.47
2019-05-23T05:13:35.769Z,961.48
2019-05-23T05:14:35.772Z,961.51
2019-05-23T05:15:35.733Z,961.52
2019-05-23T05:16:35.711Z,961.52
2019-05-23T05:17:35.703Z,961.51
2019-05-23T05:18:35.746Z,961.54
2019-05-23T05:19:35.712Z,961.43
2019-05-23T05:20:35.699Z,961.49
2019-05-23T05:21:35.692Z,961.46
2019-05-23T05:22:35.744Z,961.55
2019-05-23T05:23:35.645Z,961.57
2019-05-23T05:24:39.993Z,961.51
2019-05-23T05:25:35.611Z,961.58
2019-05-23T05:26:35.635Z,961.60
2019-05-23T05:27:35.592Z,961.54
2019-05-23T05:28:35.652Z,961.59
2019-05-23T05:29:35.601Z,961.58
2019-05-23T05:30:35.656Z,961.65
2019-05-23T05:31:35.556Z,961.55
2019-05-23T05:32:44.881Z,961.59
2019-05-23T05:33:36.671Z,961.52
2019-05-23T05:34:35.549Z,961.58
2019-05-23T05:35:35.567Z,961.57
2019-05-23T05:36:35.509Z,961.66
2019-05-23T05:37:35.556Z,961.57
2019-05-23T05:38:35.481Z,961.57
2019-05-23T05:39:35.747Z,961.56
2019-05-23T05:40:35.742Z,961.64
2019-05-23T05:41:35.822Z,961.58
2019-05-23T05:42:35.508Z,961.63
2019-05-23T05:43:35.689Z,961.65
2019-05-23T05:44:35.431Z,961.64
2019-05-23T05:45:35.531Z,961.69
2019-05-23T05:46:35.503Z,961.64
2019-05-23T05:47:35.409Z,961.64
2019-05-23T05:48:35.490Z,961.67
2019-05-23T05:49:35.431Z,961.64
2019-05-23T05:50:35.649Z,961.67
2019-05-23T05:51:35.420Z,961.76
2019-05-23T05:52:35.358Z,961.62
2019-05-23T05:53:35.389Z,961.62
2019-05-23T05:54:35.299Z,961.63
2019-05-23T05:55:35.329Z,961.61
2019-05-23T05:56:35.303Z,961.67
2019-05-23T05:57:35.261Z,961.67
2019-05-23T05:58:35.270Z,961.68
2019-05-23T05:59:35.295Z,961.64
2019-05-23T06:00:35.235Z,961.63
2019-05-23T06:01:35.254Z,961.64
2019-05-23T06:02:35.211Z,961.65
2019-05-23T06:03:35.200Z,961.66
2019-05-23T06:04:35.200Z,961.64
2019-05-23T06:05:35.280Z,961.70
2019-05-23T06:06:35.184Z,961.63
2019-05-23T06:07:35.151Z,961.68
2019-05-23T06:08:35.157Z,961.65
2019-05-23T06:09:35.131Z,961.70
2019-05-23T06:10:35.124Z,961.71
2019-05-23T06:11:35.130Z,961.70
2019-05-23T06:12:35.090Z,961.69
2019-05-23T06:13:35.098Z,961.78
2019-05-23T06:14:35.080Z,961.71
2019-05-23T06:15:35.070Z,961.71
2019-05-23T06:16:35.083Z,961.70
2019-05-23T06:17:35.088Z,961.71
2019-05-23T06:18:35.049Z,961.65
2019-05-23T06:19:35.098Z,961.72
2019-05-23T06:20:35.045Z,961.67
2019-05-23T06:21:35.012Z,961.63
2019-05-23T06:22:35.019Z,961.68
2019-05-23T06:23:35.020Z,961.72
2019-05-23T06:24:45.222Z,961.69
2019-05-23T06:25:35.968Z,961.75
2019-05-23T06:26:34.939Z,961.65
2019-05-23T06:27:34.934Z,961.69
2019-05-23T06:28:34.954Z,961.71
2019-05-23T06:29:34.912Z,961.70
2019-05-23T06:30:34.907Z,961.70
2019-05-23T06:31:34.902Z,961.66
2019-05-23T06:32:34.928Z,961.77
2019-05-23T06:33:34.891Z,961.72
2019-05-23T06:34:34.879Z,961.69
2019-05-23T06:35:34.883Z,961.69
2019-05-23T06:36:34.834Z,961.66
2019-05-23T06:37:34.819Z,961.64
2019-05-23T06:38:34.852Z,961.68
2019-05-23T06:39:34.811Z,961.68
2019-05-23T06:40:34.861Z,961.65
2019-05-23T06:41:34.778Z,961.66
2019-05-23T06:42:34.775Z,961.70
2019-05-23T06:43:34.779Z,961.62
2019-05-23T06:44:34.793Z,961.71
2019-05-23T06:45:34.748Z,961.75
2019-05-23T06:46:34.731Z,961.70
2019-05-23T06:47:34.720Z,961.75
2019-05-23T06:48:34.724Z,961.66
2019-05-23T06:49:34.729Z,961.68
2019-05-23T06:50:34.688Z,961.69
2019-05-23T06:51:34.690Z,961.59
2019-05-23T06:52:34.695Z,961.66
2019-05-23T06:53:34.660Z,961.59
2019-05-23T06:54:34.858Z,961.65
2019-05-23T06:55:34.642Z,961.69
2019-05-23T06:56:34.619Z,961.62
2019-05-23T06:57:34.620Z,961.67
2019-05-23T06:58:34.599Z,961.68
2019-05-23T06:59:34.606Z,961.60
2019-05-23T07:00:34.610Z,961.65
2019-05-23T07:01:34.592Z,961.63
2019-05-23T07:02:34.559Z,961.65
2019-05-23T07:03:42.511Z,961.64
2019-05-23T07:04:35.553Z,961.68
2019-05-23T07:05:34.530Z,961.70
2019-05-23T07:06:34.560Z,961.69
2019-05-23T07:07:34.498Z,961.63
2019-05-23T07:08:34.628Z,961.74
2019-05-23T07:09:34.602Z,961.69
2019-05-23T07:10:34.505Z,961.81
2019-05-23T07:11:34.468Z,961.70
2019-05-23T07:12:34.480Z,961.72
2019-05-23T07:13:34.499Z,961.71
2019-05-23T07:14:34.409Z,961.71
2019-05-23T07:15:34.421Z,961.69
2019-05-23T07:16:34.398Z,961.70
2019-05-23T07:17:34.420Z,961.73
2019-05-23T07:18:34.406Z,961.68
2019-05-23T07:19:34.394Z,961.71
2019-05-23T07:20:34.354Z,961.69
2019-05-23T07:21:34.342Z,961.68
2019-05-23T07:22:34.364Z,961.73
2019-05-23T07:23:34.328Z,961.73
2019-05-23T07:24:34.315Z,961.69
2019-05-23T07:25:34.316Z,961.70
2019-05-23T07:26:34.295Z,961.76
2019-05-23T07:27:34.331Z,961.73
2019-05-23T07:28:34.278Z,961.73
2019-05-23T07:29:34.289Z,961.72
2019-05-23T07:30:34.321Z,961.70
2019-05-23T07:31:35.638Z,961.70
2019-05-23T07:32:34.223Z,961.66
2019-05-23T07:33:34.215Z,961.73
2019-05-23T07:34:34.257Z,961.72
2019-05-23T07:35:34.203Z,961.67
2019-05-23T07:36:34.234Z,961.65
2019-05-23T07:37:34.182Z,961.61
2019-05-23T07:38:34.167Z,961.59
2019-05-23T07:39:34.165Z,961.63
2019-05-23T07:40:34.290Z,961.54
2019-05-23T07:41:34.273Z,961.53
2019-05-23T07:42:34.372Z,961.54
2019-05-23T07:43:34.126Z,961.50
2019-05-23T07:44:47.491Z,961.58
2019-05-23T07:45:35.077Z,961.56
2019-05-23T07:46:34.125Z,961.55
2019-05-23T07:47:34.180Z,961.54
2019-05-23T07:48:34.123Z,961.53
2019-05-23T07:49:34.168Z,961.45
2019-05-23T07:50:34.195Z,961.49
2019-05-23T07:51:34.047Z,961.56
2019-05-23T07:52:34.008Z,961.53
2019-05-23T07:53:33.988Z,961.52
2019-05-23T07:54:33.979Z,961.54
2019-05-23T07:55:33.994Z,961.53
2019-05-23T07:56:34.038Z,961.52
2019-05-23T07:57:33.959Z,961.50
2019-05-23T07:58:33.968Z,961.53
2019-05-23T07:59:33.958Z,961.57
2019-05-23T08:00:33.937Z,961.54
2019-05-23T08:01:33.948Z,961.52
2019-05-23T08:02:33.900Z,961.49
2019-05-23T08:03:33.881Z,961.53
2019-05-23T08:04:33.939Z,961.46
2019-05-23T08:05:33.981Z,961.45
2019-05-23T08:06:33.876Z,961.49
2019-05-23T08:07:33.846Z,961.49
2019-05-23T08:08:33.851Z,961.47
2019-05-23T08:09:33.843Z,961.46
2019-05-23T08:10:34.532Z,961.49
2019-05-23T08:11:33.811Z,961.47
2019-05-23T08:12:33.800Z,961.47
2019-05-23T08:13:33.764Z,961.45
2019-05-23T08:14:33.796Z,961.45
2019-05-23T08:15:33.745Z,961.40
2019-05-23T08:16:33.749Z,961.45
2019-05-23T08:17:33.721Z,961.38
2019-05-23T08:18:33.798Z,961.41
2019-05-23T08:19:48.540Z,961.47
2019-05-23T08:20:34.686Z,961.40
2019-05-23T08:21:33.698Z,961.40
2019-05-23T08:22:33.697Z,961.36
2019-05-23T08:23:33.661Z,961.34
2019-05-23T08:24:33.708Z,961.39
2019-05-23T08:25:33.738Z,961.39
2019-05-23T08:26:33.859Z,961.40
2019-05-23T08:27:34.298Z,961.33
2019-05-23T08:28:33.614Z,961.40
2019-05-23T08:29:33.621Z,961.36
2019-05-23T08:30:33.608Z,961.40
2019-05-23T08:31:33.618Z,961.40
2019-05-23T08:32:33.578Z,961.31
2019-05-23T08:33:33.552Z,961.34
2019-05-23T08:34:41.673Z,961.39
2019-05-23T08:35:34.541Z,961.32
2019-05-23T08:36:33.631Z,961.40
2019-05-23T08:37:33.509Z,961.36
2019-05-23T08:38:33.499Z,961.41
2019-05-23T08:39:33.512Z,961.38
2019-05-23T08:40:33.498Z,961.40
2019-05-23T08:41:33.539Z,961.36
2019-05-23T08:42:33.557Z,961.39
2019-05-23T08:43:33.439Z,961.35
2019-05-23T08:44:33.420Z,961.35
2019-05-23T08:45:33.471Z,961.36
2019-05-23T08:46:33.458Z,961.38
2019-05-23T08:47:33.459Z,961.34
2019-05-23T08:48:33.388Z,961.34
2019-05-23T08:49:33.447Z,961.31
2019-05-23T08:50:33.357Z,961.35
2019-05-23T08:51:33.399Z,961.40
2019-05-23T08:52:33.400Z,961.40
2019-05-23T08:53:33.591Z,961.34
2019-05-23T08:54:33.382Z,961.38
2019-05-23T08:55:33.339Z,961.33
2019-05-23T08:56:33.318Z,961.33
2019-05-23T08:57:34.875Z,961.30
2019-05-23T08:58:33.294Z,961.34
2019-05-23T08:59:33.261Z,961.30
2019-05-23T09:00:33.267Z,961.35
2019-05-23T09:01:33.254Z,961.30
2019-05-23T09:02:33.300Z,961.28
2019-05-23T09:03:33.259Z,961.30
2019-05-23T09:04:33.242Z,961.25
2019-05-23T09:05:33.198Z,961.28
2019-05-23T09:06:33.270Z,961.26
2019-05-23T09:07:33.185Z,961.21
2019-05-23T09:08:33.180Z,961.23
2019-05-23T09:09:33.187Z,961.29
2019-05-23T09:10:33.226Z,961.26
2019-05-23T09:11:33.141Z,961.32
2019-05-23T09:12:33.119Z,961.31
2019-05-23T09:13:33.127Z,961.31
2019-05-23T09:14:33.112Z,961.32
2019-05-23T09:15:33.081Z,961.32
2019-05-23T09:16:33.355Z,961.35
2019-05-23T09:17:49.728Z,961.30
2019-05-23T09:18:34.110Z,961.29
2019-05-23T09:19:33.061Z,961.26
2019-05-23T09:20:33.022Z,961.23
2019-05-23T09:21:33.107Z,961.22
2019-05-23T09:22:33.006Z,961.27
2019-05-23T09:23:33.024Z,961.37
2019-05-23T09:24:33.001Z,961.30
2019-05-23T09:25:32.982Z,961.37
2019-05-23T09:26:32.989Z,961.38
2019-05-23T09:27:34.750Z,961.37
2019-05-23T09:28:33.030Z,961.34
2019-05-23T09:29:33.030Z,961.33
2019-05-23T09:30:32.923Z,961.32
2019-05-23T09:31:32.928Z,961.30
2019-05-23T09:32:32.926Z,961.27
2019-05-23T09:33:32.881Z,961.30
2019-05-23T09:34:32.907Z,961.22
2019-05-23T09:35:32.869Z,961.21
2019-05-23T09:36:32.901Z,961.25
2019-05-23T09:37:32.841Z,961.27
2019-05-23T09:38:32.861Z,961.29
2019-05-23T09:39:32.854Z,961.29
2019-05-23T09:40:32.820Z,961.28
2019-05-23T09:41:32.926Z,961.24
2019-05-23T09:42:32.887Z,961.26
2019-05-23T09:43:32.793Z,961.16
2019-05-23T09:44:32.814Z,961.22
2019-05-23T09:45:32.769Z,961.18
2019-05-23T09:46:32.753Z,961.17
2019-05-23T09:47:32.735Z,961.13
2019-05-23T09:48:32.813Z,961.16
2019-05-23T09:49:32.816Z,961.18
2019-05-23T09:50:32.725Z,961.20
2019-05-23T09:51:32.692Z,961.19
2019-05-23T09:52:32.704Z,961.15
2019-05-23T09:53:32.690Z,961.14
2019-05-23T09:54:32.674Z,961.13
2019-05-23T09:55:32.674Z,961.13
2019-05-23T09:56:32.671Z,961.14
2019-05-23T09:57:32.649Z,961.08
2019-05-23T09:58:32.656Z,961.14
2019-05-23T09:59:32.600Z,961.09
2019-05-23T10:00:32.611Z,961.10
2019-05-23T10:01:32.598Z,961.14
2019-05-23T10:02:32.565Z,961.14
2019-05-23T10:03:32.672Z,961.15
2019-05-23T10:04:32.639Z,961.11
2019-05-23T10:05:42.940Z,961.09
2019-05-23T10:06:33.525Z,961.08
2019-05-23T10:07:32.517Z,961.11
2019-05-23T10:08:32.514Z,961.13
2019-05-23T10:09:32.543Z,961.07
2019-05-23T10:10:32.502Z,961.09
2019-05-23T10:11:32.473Z,961.04
2019-05-23T10:12:32.533Z,961.01
2019-05-23T10:13:38.920Z,961.02
2019-05-23T10:14:33.472Z,961.08
2019-05-23T10:15:32.531Z,961.06
2019-05-23T10:16:32.460Z,961.07
2019-05-23T10:17:32.418Z,961.06
2019-05-23T10:18:32.442Z,961.01
2019-05-23T10:19:32.485Z,961.05
2019-05-23T10:20:32.377Z,960.97
2019-05-23T10:21:32.518Z,960.98
2019-05-23T10:22:32.345Z,961.02
2019-05-23T10:23:32.430Z,961.04
2019-05-23T10:24:32.363Z,960.99
2019-05-23T10:25:32.343Z,961.01
2019-05-23T10:26:32.310Z,960.99
2019-05-23T10:27:32.294Z,961.00
2019-05-23T10:28:32.292Z,960.97
2019-05-23T10:29:32.318Z,961.01
2019-05-23T10:30:33.067Z,960.96
2019-05-23T10:31:32.284Z,960.97
2019-05-23T10:32:32.284Z,960.93
2019-05-23T10:33:32.227Z,960.93
2019-05-23T10:34:32.235Z,960.91
2019-05-23T10:35:32.245Z,960.88
2019-05-23T10:36:32.194Z,960.95
2019-05-23T10:37:32.235Z,960.90
2019-05-23T10:38:32.174Z,960.86
2019-05-23T10:39:32.173Z,960.81
2019-05-23T10:40:32.182Z,960.86
2019-05-23T10:41:32.144Z,960.74
2019-05-23T10:42:32.128Z,960.75
2019-05-23T10:43:32.156Z,960.78
2019-05-23T10:44:32.104Z,960.74
2019-05-23T10:45:32.136Z,960.72
2019-05-23T10:46:32.117Z,960.72
2019-05-23T10:47:32.165Z,960.68
2019-05-23T10:48:32.065Z,960.66
2019-05-23T10:49:32.055Z,960.74
2019-05-23T10:50:44.185Z,960.74
2019-05-23T10:51:33.091Z,960.76
2019-05-23T10:52:32.019Z,960.76
2019-05-23T10:53:32.042Z,960.70
2019-05-23T10:54:32.043Z,960.71
2019-05-23T10:55:32.024Z,960.75
2019-05-23T10:56:32.014Z,960.75
2019-05-23T10:57:31.992Z,960.67
2019-05-23T10:58:31.988Z,960.64
2019-05-23T10:59:31.949Z,960.66
2019-05-23T11:01:24.722Z,960.69
2019-05-23T11:02:27.021Z,960.72
2019-05-23T11:03:24.657Z,960.67
2019-05-23T11:04:24.647Z,960.58
2019-05-23T11:05:24.626Z,960.68
2019-05-23T11:06:24.658Z,960.62
2019-05-23T11:07:24.629Z,960.67
2019-05-23T11:08:28.753Z,960.70
2019-05-23T11:09:37.366Z,960.64
2019-05-23T11:10:25.580Z,960.66
2019-05-23T11:11:24.633Z,960.59
2019-05-23T11:12:24.565Z,960.63
2019-05-23T11:13:24.571Z,960.65
2019-05-23T11:14:24.550Z,960.63
2019-05-23T11:15:24.538Z,960.58
2019-05-23T11:16:24.547Z,960.58
2019-05-23T11:17:24.516Z,960.56
2019-05-23T11:18:24.544Z,960.58
2019-05-23T11:19:24.583Z,960.54
2019-05-23T11:20:24.495Z,960.58
2019-05-23T11:21:24.514Z,960.48
2019-05-23T11:22:24.858Z,960.53
2019-05-23T11:23:24.445Z,960.51
2019-05-23T11:24:24.463Z,960.54
2019-05-23T11:25:24.454Z,960.49
2019-05-23T11:26:24.517Z,960.51
2019-05-23T11:27:25.355Z,960.47
2019-05-23T11:28:24.502Z,960.52
2019-05-23T11:29:27.270Z,960.58
2019-05-23T11:30:24.370Z,960.43
2019-05-23T11:31:24.360Z,960.46
2019-05-23T11:32:24.362Z,960.48
2019-05-23T11:33:24.367Z,960.46
2019-05-23T11:34:24.325Z,960.48
2019-05-23T11:35:24.308Z,960.41
2019-05-23T11:36:34.821Z,960.43
2019-05-23T11:37:25.337Z,960.46
2019-05-23T11:38:24.306Z,960.45
2019-05-23T11:39:24.265Z,960.38
2019-05-23T11:40:24.251Z,960.35
2019-05-23T11:41:24.244Z,960.37
2019-05-23T11:42:24.286Z,960.40
2019-05-23T11:43:24.238Z,960.34
2019-05-23T11:44:24.234Z,960.43
2019-05-23T11:45:24.200Z,960.42
2019-05-23T11:46:24.181Z,960.40
2019-05-23T11:47:24.252Z,960.36
2019-05-23T11:48:24.207Z,960.52
2019-05-23T11:49:24.148Z,960.44
2019-05-23T11:50:24.140Z,960.38
2019-05-23T11:51:25.441Z,960.39
2019-05-23T11:52:24.120Z,960.46
2019-05-23T11:53:24.145Z,960.44
2019-05-23T11:54:24.119Z,960.37
2019-05-23T11:55:24.088Z,960.34
2019-05-23T11:56:24.081Z,960.38
2019-05-23T11:57:24.072Z,960.25
2019-05-23T11:58:24.084Z,960.25
2019-05-23T11:59:24.053Z,960.25
2019-05-23T12:00:24.039Z,960.28
2019-05-23T12:01:24.069Z,960.28
2019-05-23T12:02:24.014Z,960.22
2019-05-23T12:03:24.045Z,960.21
2019-05-23T12:04:24.024Z,960.32
2019-05-23T12:05:24.035Z,960.27
2019-05-23T12:06:26.120Z,960.21
2019-05-23T12:07:23.984Z,960.20
2019-05-23T12:08:23.993Z,960.16
2019-05-23T12:09:23.950Z,960.17
2019-05-23T12:10:23.914Z,960.16
2019-05-23T12:11:23.910Z,960.12
2019-05-23T12:12:23.902Z,960.16
2019-05-23T12:13:23.947Z,960.13
2019-05-23T12:14:23.900Z,960.11
2019-05-23T12:15:23.880Z,960.01
2019-05-23T12:16:23.860Z,960.05
2019-05-23T12:17:23.844Z,960.12
2019-05-23T12:18:23.894Z,960.11
2019-05-23T12:19:23.975Z,960.13
2019-05-23T12:20:23.817Z,960.12
2019-05-23T12:21:23.803Z,960.15
2019-05-23T12:22:23.812Z,960.07
2019-05-23T12:23:23.792Z,959.97
2019-05-23T12:24:23.789Z,960.03
2019-05-23T12:25:23.851Z,960.03
2019-05-23T12:26:23.751Z,960.01
2019-05-23T12:27:23.731Z,959.95
2019-05-23T12:28:23.958Z,960.03
2019-05-23T12:29:23.741Z,960.00